Time;durP1;ratioP1;P1;durP2;ratioP2;P2;SDS_P1;SDS_P2;PMS_P1;PMS_P2;Temp;Humidity;BMP_temperature;BMP_pressure;BME280_temperature;BME280_humidity;BME280_pressure;Samples;Min_cycle;Max_cycle;Signal;HPM_P1;HPM_P2
2023/08/05 00:00:41;;;;;;;7.07;6.37;;;17.70;1.00;;;;;;5040699;28;20484;-77
2023/08/05 00:03:08;;;;;;;6.87;5.00;;;17.70;1.00;;;;;;5040763;28;20553;-76
2023/08/05 00:05:37;;;;;;;6.13;5.53;;;17.70;1.00;;;;;;5041044;28;21003;-75
2023/08/05 00:08:05;;;;;;;8.13;5.50;;;17.70;1.00;;;;;;5038815;28;21029;-76
2023/08/05 00:10:32;;;;;;;6.33;5.70;;;17.70;1.00;;;;;;5042305;28;20502;-74
2023/08/05 00:12:59;;;;;;;5.83;5.23;;;17.70;1.00;;;;;;5040512;28;20523;-75
2023/08/05 00:15:26;;;;;;;5.80;5.30;;;17.60;1.00;;;;;;5038790;28;20516;-75
2023/08/05 00:17:53;;;;;;;6.10;5.50;;;17.60;1.00;;;;;;5031199;28;20465;-75
2023/08/05 00:20:20;;;;;;;6.20;5.60;;;17.60;1.00;;;;;;5044140;28;20523;-75
2023/08/05 00:22:47;;;;;;;6.83;5.70;;;17.70;1.00;;;;;;5041407;28;21087;-77
2023/08/05 00:25:15;;;;;;;8.23;5.53;;;17.70;1.00;;;;;;5040461;28;20466;-76
2023/08/05 00:27:42;;;;;;;9.63;8.70;;;17.70;1.00;;;;;;5040613;28;20968;-77
2023/08/05 00:30:09;;;;;;;6.00;5.50;;;17.60;1.00;;;;;;5040853;28;20501;-76
2023/08/05 00:32:36;;;;;;;8.00;5.33;;;17.60;1.00;;;;;;5045123;28;21262;-78
2023/08/05 00:35:04;;;;;;;5.97;5.40;;;17.50;1.00;;;;;;5042110;28;20463;-77
2023/08/05 00:37:31;;;;;;;7.70;5.77;;;17.40;1.00;;;;;;5044416;28;20559;-76
2023/08/05 00:39:58;;;;;;;8.47;5.90;;;17.30;1.00;;;;;;5048575;28;20484;-77
2023/08/05 00:42:28;;;;;;;6.00;5.40;;;17.30;1.00;;;;;;5047739;28;20882;-77
2023/08/05 00:44:56;;;;;;;6.07;4.73;;;17.30;1.00;;;;;;5044571;28;20544;-76
2023/08/05 00:47:23;;;;;;;6.40;5.77;;;17.30;1.00;;;;;;5045507;28;20919;-76
2023/08/05 00:49:52;;;;;;;6.57;5.27;;;17.30;1.00;;;;;;5047269;28;20934;-75
2023/08/05 00:52:21;;;;;;;6.60;5.90;;;17.30;1.00;;;;;;5044679;28;20607;-76
2023/08/05 00:54:49;;;;;;;6.57;5.30;;;17.30;1.00;;;;;;5045185;28;20641;-77
2023/08/05 00:57:18;;;;;;;5.40;5.00;;;17.30;1.00;;;;;;5045937;28;20465;-77
2023/08/05 00:59:47;;;;;;;5.87;5.23;;;17.30;1.00;;;;;;5045510;28;20564;-76
2023/08/05 01:02:14;;;;;;;6.67;5.63;;;17.30;1.00;;;;;;5044972;28;20554;-77
2023/08/05 01:04:41;;;;;;;6.43;5.17;;;17.30;1.00;;;;;;5044894;28;20914;-75
2023/08/05 01:07:09;;;;;;;6.73;5.00;;;17.30;1.00;;;;;;5044897;28;20477;-77
2023/08/05 01:09:36;;;;;;;4.70;4.30;;;17.30;1.00;;;;;;5044517;28;20467;-76
2023/08/05 01:12:03;;;;;;;6.47;5.87;;;17.30;1.00;;;;;;5047025;28;20458;-75
2023/08/05 01:14:31;;;;;;;6.53;4.60;;;17.30;1.00;;;;;;5042060;28;20493;-75
2023/08/05 01:16:59;;;;;;;5.77;5.00;;;17.30;1.00;;;;;;5045864;28;20470;-75
2023/08/05 01:19:29;;;;;;;5.73;5.23;;;17.30;1.00;;;;;;5044570;28;22710;-76
2023/08/05 01:22:07;;;;;;;7.23;5.30;;;17.30;1.00;;;;;;5044618;28;20878;-75
2023/08/05 01:24:41;;;;;;;5.63;4.87;;;17.30;1.00;;;;;;5045188;28;20473;-76
2023/08/05 01:27:11;;;;;;;5.83;5.00;;;17.30;1.00;;;;;;5047327;28;20936;-77
2023/08/05 01:29:38;;;;;;;5.40;4.90;;;17.30;1.00;;;;;;5044215;28;20507;-75
2023/08/05 01:32:07;;;;;;;6.20;5.67;;;17.30;1.00;;;;;;5043131;28;20823;-76
2023/08/05 01:34:35;;;;;;;6.13;5.53;;;17.20;1.00;;;;;;5042081;28;20511;-76
2023/08/05 01:37:02;;;;;;;8.03;6.23;;;17.30;1.00;;;;;;5047288;28;20475;-75
2023/08/05 01:39:29;;;;;;;5.07;4.67;;;17.30;1.00;;;;;;5043811;28;20473;-76
2023/08/05 01:41:56;;;;;;;6.17;4.83;;;17.30;1.00;;;;;;5046026;28;20469;-77
2023/08/05 01:44:24;;;;;;;6.73;5.00;;;17.30;1.00;;;;;;5041036;28;21328;-76
2023/08/05 01:46:51;;;;;;;8.33;5.23;;;17.20;1.00;;;;;;5043755;28;20478;-76
2023/08/05 01:49:18;;;;;;;5.30;4.73;;;17.20;1.00;;;;;;5043312;28;20580;-75
2023/08/05 01:51:45;;;;;;;4.73;4.33;;;17.20;1.00;;;;;;5045387;28;20488;-75
2023/08/05 01:54:12;;;;;;;6.03;5.43;;;17.10;1.00;;;;;;5032872;28;20460;-77
2023/08/05 01:56:38;;;;;;;5.30;4.80;;;17.10;1.00;;;;;;5041998;28;20490;-76
2023/08/05 01:59:05;;;;;;;5.70;5.10;;;17.10;1.00;;;;;;5046226;28;20571;-77
2023/08/05 02:01:44;;;;;;;5.67;5.03;;;17.10;1.00;;;;;;5041609;28;20564;-77
2023/08/05 02:04:11;;;;;;;6.20;4.93;;;17.10;1.00;;;;;;5045389;28;20460;-76
2023/08/05 02:06:38;;;;;;;6.13;5.53;;;17.10;1.00;;;;;;5045560;28;20900;-77
2023/08/05 02:09:05;;;;;;;5.60;4.60;;;17.00;1.00;;;;;;5045397;28;20510;-77
2023/08/05 02:11:32;;;;;;;4.83;4.37;;;17.10;1.00;;;;;;5039734;28;20444;-75
2023/08/05 02:13:59;;;;;;;6.60;4.93;;;17.10;1.00;;;;;;5049583;28;20497;-77
2023/08/05 02:16:26;;;;;;;7.13;4.67;;;17.10;1.00;;;;;;5044565;28;20943;-76
2023/08/05 02:18:55;;;;;;;5.23;4.53;;;17.10;1.00;;;;;;5046378;28;20496;-76
2023/08/05 02:21:24;;;;;;;4.60;4.13;;;17.10;1.00;;;;;;5046096;28;20457;-76
2023/08/05 02:23:51;;;;;;;4.83;4.27;;;17.00;1.00;;;;;;5041599;28;20476;-75
2023/08/05 02:26:18;;;;;;;5.47;4.37;;;17.00;1.00;;;;;;5040331;28;20512;-74
2023/08/05 02:28:46;;;;;;;5.47;3.90;;;17.00;1.00;;;;;;5046244;28;20897;-73
2023/08/05 02:31:13;;;;;;;6.10;4.80;;;17.00;1.00;;;;;;5041397;28;21138;-74
2023/08/05 02:33:40;;;;;;;4.70;4.30;;;16.90;1.00;;;;;;5043658;28;20527;-73
2023/08/05 02:36:09;;;;;;;5.93;4.50;;;16.90;1.00;;;;;;5044082;28;20608;-75
2023/08/05 02:38:36;;;;;;;4.77;4.27;;;16.90;1.00;;;;;;5044373;28;20580;-74
2023/08/05 02:41:07;;;;;;;6.10;4.10;;;16.80;1.00;;;;;;5042506;28;20473;-75
2023/08/05 02:43:34;;;;;;;6.70;5.00;;;16.90;1.00;;;;;;5041239;28;20472;-74
2023/08/05 02:46:01;;;;;;;4.60;4.20;;;16.80;1.00;;;;;;5043360;28;20936;-74
2023/08/05 02:48:28;;;;;;;6.47;4.60;;;16.80;1.00;;;;;;5043496;28;20559;-76
2023/08/05 02:50:55;;;;;;;5.83;4.20;;;16.80;1.00;;;;;;5042660;28;20894;-73
2023/08/05 02:53:24;;;;;;;5.23;4.70;;;16.70;1.00;;;;;;5043744;28;20988;-76
2023/08/05 02:55:51;;;;;;;6.00;4.30;;;16.70;1.00;;;;;;5041826;28;20544;-74
2023/08/05 02:58:19;;;;;;;5.47;4.43;;;16.70;1.00;;;;;;5033771;28;20507;-74
2023/08/05 03:00:47;;;;;;;4.33;3.93;;;16.70;1.00;;;;;;5044466;28;20453;-74
2023/08/05 03:03:15;;;;;;;5.03;4.20;;;16.60;1.00;;;;;;5043905;28;20830;-75
2023/08/05 03:05:44;;;;;;;3.90;3.60;;;16.60;1.00;;;;;;5045455;28;20957;-75
2023/08/05 03:08:11;;;;;;;5.10;4.60;;;16.60;1.00;;;;;;5044106;28;20469;-74
2023/08/05 03:10:40;;;;;;;5.97;4.43;;;16.60;1.00;;;;;;5039929;28;20542;-74
2023/08/05 03:13:07;;;;;;;4.90;4.47;;;16.50;1.00;;;;;;5038828;28;20559;-74
2023/08/05 03:15:35;;;;;;;5.33;4.67;;;16.50;1.00;;;;;;5041903;28;20490;-74
2023/08/05 03:18:01;;;;;;;5.30;4.80;;;16.50;1.00;;;;;;5038700;28;20499;-75
2023/08/05 03:20:30;;;;;;;5.20;4.07;;;16.40;1.00;;;;;;5042163;28;20555;-74
2023/08/05 03:22:58;;;;;;;5.17;4.67;;;16.40;1.00;;;;;;5041084;28;20499;-74
2023/08/05 03:25:26;;;;;;;6.43;4.53;;;16.40;1.00;;;;;;5038692;28;21142;-74
2023/08/05 03:27:54;;;;;;;5.70;4.60;;;16.40;1.00;;;;;;5043230;28;20475;-75
2023/08/05 03:30:21;;;;;;;6.63;4.60;;;16.30;1.00;;;;;;5042660;28;20519;-75
2023/08/05 03:32:48;;;;;;;5.17;4.67;;;16.40;1.00;;;;;;5042282;28;20547;-75
2023/08/05 03:35:16;;;;;;;5.23;4.73;;;16.30;1.00;;;;;;5042156;28;20468;-74
2023/08/05 03:37:43;;;;;;;5.03;4.53;;;16.30;1.00;;;;;;5033204;28;20500;-79
2023/08/05 03:40:10;;;;;;;5.03;4.63;;;16.30;1.00;;;;;;5046494;28;20524;-79
2023/08/05 03:42:37;;;;;;;6.47;5.00;;;16.30;1.00;;;;;;5043180;28;20632;-79
2023/08/05 03:45:07;;;;;;;6.20;5.30;;;16.30;1.00;;;;;;5041531;28;20472;-77
2023/08/05 03:47:34;;;;;;;5.83;4.50;;;16.20;1.00;;;;;;5040604;28;20477;-78
2023/08/05 03:50:01;;;;;;;6.73;5.47;;;16.20;1.00;;;;;;5042039;28;20452;-79
2023/08/05 03:52:29;;;;;;;7.50;5.60;;;16.20;1.00;;;;;;5043963;28;20919;-79
2023/08/05 03:54:56;;;;;;;5.10;4.70;;;16.20;1.00;;;;;;5036893;28;20530;-79
2023/08/05 03:57:23;;;;;;;5.87;4.53;;;16.20;1.00;;;;;;5040877;28;20457;-76
2023/08/05 03:59:50;;;;;;;5.77;4.90;;;16.20;1.00;;;;;;5044809;28;20465;-80
2023/08/05 04:02:19;;;;;;;6.70;4.93;;;16.20;1.00;;;;;;5042171;28;20468;-79
2023/08/05 04:04:47;;;;;;;5.47;4.70;;;16.10;1.00;;;;;;5040023;28;20476;-77
2023/08/05 04:07:14;;;;;;;7.17;4.93;;;16.20;1.00;;;;;;5039711;28;20603;-78
2023/08/05 04:09:41;;;;;;;5.23;4.67;;;16.20;1.00;;;;;;5041026;28;20511;-78
2023/08/05 04:12:09;;;;;;;5.27;4.83;;;16.20;1.00;;;;;;5037986;28;20493;-79
2023/08/05 04:14:37;;;;;;;5.07;4.40;;;16.10;1.00;;;;;;5045023;28;22318;-79
2023/08/05 04:17:04;;;;;;;6.87;3.93;;;16.20;1.00;;;;;;5044621;28;20528;-78
2023/08/05 04:19:33;;;;;;;4.67;4.20;;;16.10;1.00;;;;;;5047639;28;20452;-80
2023/08/05 04:22:01;;;;;;;5.13;4.30;;;16.10;1.00;;;;;;5046234;28;20456;-79
2023/08/05 04:24:29;;;;;;;4.37;3.97;;;16.10;1.00;;;;;;5036213;28;22124;-80
2023/08/05 04:26:56;;;;;;;5.17;4.67;;;16.20;1.00;;;;;;5040199;28;20480;-78
2023/08/05 04:29:24;;;;;;;6.33;5.10;;;16.20;1.00;;;;;;5042489;28;20558;-78
2023/08/05 04:31:51;;;;;;;7.53;4.80;;;16.10;1.00;;;;;;5044616;28;20506;-78
2023/08/05 04:34:18;;;;;;;7.80;5.47;;;16.10;1.00;;;;;;5044313;28;20448;-79
2023/08/05 04:36:49;;;;;;;6.10;4.87;;;16.20;1.00;;;;;;5047419;28;20469;-78
2023/08/05 04:39:17;;;;;;;5.53;4.53;;;16.20;1.00;;;;;;5033838;28;20461;-79
2023/08/05 04:41:44;;;;;;;6.13;5.10;;;16.20;1.00;;;;;;5044567;28;20479;-78
2023/08/05 04:44:11;;;;;;;5.60;5.00;;;16.30;1.00;;;;;;5049678;28;20488;-78
2023/08/05 04:46:38;;;;;;;5.70;5.20;;;16.20;1.00;;;;;;5044682;28;20424;-75
2023/08/05 04:49:08;;;;;;;5.53;5.03;;;16.30;1.00;;;;;;5048265;28;20455;-76
2023/08/05 04:51:35;;;;;;;5.03;4.53;;;16.30;1.00;;;;;;5043710;28;20535;-77
2023/08/05 04:54:04;;;;;;;8.37;5.30;;;16.30;1.00;;;;;;5046219;28;20885;-76
2023/08/05 04:56:31;;;;;;;5.87;4.97;;;16.30;1.00;;;;;;5044577;28;20496;-77
2023/08/05 04:58:57;;;;;;;6.00;5.00;;;16.30;1.00;;;;;;5046909;28;20531;-75
2023/08/05 05:01:24;;;;;;;5.97;5.03;;;16.30;1.00;;;;;;5048483;28;20500;-76
2023/08/05 05:03:52;;;;;;;5.03;4.53;;;16.50;1.00;;;;;;5046822;28;20515;-76
2023/08/05 05:06:19;;;;;;;8.93;4.70;;;16.50;1.00;;;;;;5047812;28;20468;-76
2023/08/05 05:08:46;;;;;;;7.53;5.00;;;16.60;1.00;;;;;;5049247;28;20453;-77
2023/08/05 05:11:14;;;;;;;5.80;5.20;;;16.60;1.00;;;;;;5049410;28;20497;-77
2023/08/05 05:13:43;;;;;;;5.90;4.47;;;16.70;1.00;;;;;;5049584;28;20456;-76
2023/08/05 05:16:11;;;;;;;5.23;4.73;;;16.70;1.00;;;;;;5049434;28;20473;-75
2023/08/05 05:18:38;;;;;;;6.33;5.33;;;16.80;1.00;;;;;;5046651;28;20459;-77
2023/08/05 05:21:05;;;;;;;5.90;5.20;;;16.80;1.00;;;;;;5047076;28;21066;-76
2023/08/05 05:23:34;;;;;;;5.60;5.07;;;16.90;1.00;;;;;;5046620;28;20467;-77
2023/08/05 05:26:01;;;;;;;5.03;4.53;;;16.90;1.00;;;;;;5045964;28;20484;-79
2023/08/05 05:28:29;;;;;;;6.40;4.87;;;17.00;1.00;;;;;;5047678;28;20539;-77
2023/08/05 05:30:58;;;;;;;6.67;4.70;;;17.10;1.00;;;;;;5052148;28;20458;-77
2023/08/05 05:33:25;;;;;;;4.83;4.43;;;17.20;1.00;;;;;;5046996;28;20510;-76
2023/08/05 05:35:52;;;;;;;5.87;4.80;;;17.30;1.00;;;;;;5047880;28;20457;-75
2023/08/05 05:38:19;;;;;;;6.17;4.90;;;17.30;1.00;;;;;;5044556;28;20946;-76
2023/08/05 05:40:46;;;;;;;6.17;4.63;;;17.30;1.00;;;;;;5047503;28;20490;-76
2023/08/05 05:43:13;;;;;;;5.10;4.60;;;17.40;1.00;;;;;;5047914;28;20553;-77
2023/08/05 05:45:41;;;;;;;7.10;5.97;;;17.50;1.00;;;;;;5046379;28;20543;-76
2023/08/05 05:48:08;;;;;;;4.73;4.33;;;17.50;1.00;;;;;;5049873;28;20885;-77
2023/08/05 05:50:39;;;;;;;6.93;4.30;;;17.50;1.00;;;;;;5046525;28;20461;-77
2023/08/05 05:53:08;;;;;;;7.20;5.07;;;17.60;1.00;;;;;;5045602;28;23452;-77
2023/08/05 05:55:35;;;;;;;7.40;4.60;;;17.60;1.00;;;;;;5050005;28;20517;-76
2023/08/05 05:58:02;;;;;;;5.47;4.50;;;17.70;1.00;;;;;;5047106;28;20427;-79
2023/08/05 06:00:29;;;;;;;5.80;4.67;;;17.90;1.00;;;;;;5044904;28;20458;-79
2023/08/05 06:02:58;;;;;;;4.70;3.77;;;18.00;1.00;;;;;;5044712;28;20506;-79
2023/08/05 06:05:25;;;;;;;4.93;4.43;;;18.00;1.00;;;;;;5048137;28;21592;-81
2023/08/05 06:07:52;;;;;;;6.47;5.00;;;18.20;1.00;;;;;;5050247;28;20473;-77
2023/08/05 06:10:19;;;;;;;7.33;4.20;;;18.40;1.00;;;;;;5047110;28;20528;-77
2023/08/05 06:12:47;;;;;;;5.10;4.60;;;18.50;1.00;;;;;;5045860;28;20615;-79
2023/08/05 06:15:14;;;;;;;4.57;3.60;;;18.70;1.00;;;;;;5051966;28;20556;-79
2023/08/05 06:17:41;;;;;;;6.30;3.97;;;18.80;1.00;;;;;;5031197;28;20445;-78
2023/08/05 06:20:11;;;;;;;6.50;4.47;;;19.00;1.00;;;;;;5050828;28;20974;-78
2023/08/05 06:22:38;;;;;;;6.50;4.27;;;19.20;1.00;;;;;;5048633;28;20460;-78
2023/08/05 06:25:05;;;;;;;5.30;4.00;;;19.30;1.00;;;;;;5049783;28;20876;-77
2023/08/05 06:27:32;;;;;;;6.00;5.40;;;19.40;1.00;;;;;;5046209;28;20453;-77
2023/08/05 06:30:00;;;;;;;5.53;5.03;;;19.50;1.00;;;;;;5047515;28;20464;-78
2023/08/05 06:32:27;;;;;;;4.20;3.80;;;19.50;1.00;;;;;;5044692;28;20469;-79
2023/08/05 06:34:54;;;;;;;4.40;3.60;;;19.60;1.00;;;;;;5047469;28;20563;-78
2023/08/05 06:37:22;;;;;;;7.07;3.80;;;19.70;1.00;;;;;;5044441;28;20464;-78
2023/08/05 06:39:49;;;;;;;5.60;3.73;;;19.80;1.00;;;;;;5046792;28;20520;-78
2023/08/05 06:42:16;;;;;;;7.27;4.20;;;19.80;1.00;;;;;;5046201;28;20420;-78
2023/08/05 06:44:47;;;;;;;4.00;3.60;;;19.90;1.00;;;;;;5045893;28;20528;-79
2023/08/05 06:47:14;;;;;;;5.83;5.00;;;19.90;1.00;;;;;;5043095;28;20601;-76
2023/08/05 06:49:41;;;;;;;5.77;4.33;;;19.90;1.00;;;;;;5045620;28;20465;-78
2023/08/05 06:52:08;;;;;;;5.50;3.40;;;20.10;1.00;;;;;;5047413;28;20479;-78
2023/08/05 06:54:37;;;;;;;3.67;3.30;;;20.20;1.00;;;;;;5044696;28;20510;-78
2023/08/05 06:57:04;;;;;;;4.30;3.90;;;20.40;1.00;;;;;;5045588;28;20578;-79
2023/08/05 06:59:31;;;;;;;3.40;3.10;;;20.50;1.00;;;;;;5045509;28;20492;-79
2023/08/05 07:01:58;;;;;;;3.67;3.40;;;20.40;1.00;;;;;;5050451;28;20546;-78
2023/08/05 07:04:25;;;;;;;4.10;3.70;;;20.50;1.00;;;;;;5052013;28;20517;-77
2023/08/05 07:06:52;;;;;;;4.87;4.00;;;20.50;1.00;;;;;;5052992;28;20453;-78
2023/08/05 07:09:19;;;;;;;5.47;4.10;;;20.70;1.00;;;;;;5051640;28;20475;-78
2023/08/05 07:11:47;;;;;;;6.57;4.83;;;20.70;1.00;;;;;;5047791;28;20474;-78
2023/08/05 07:14:15;;;;;;;5.77;3.90;;;20.90;1.00;;;;;;5051615;28;20528;-79
2023/08/05 07:16:42;;;;;;;6.47;4.23;;;21.10;1.00;;;;;;5052715;28;20463;-79
2023/08/05 07:19:09;;;;;;;5.60;4.50;;;21.30;1.00;;;;;;5042893;28;20470;-79
2023/08/05 07:21:36;;;;;;;6.47;5.27;;;21.40;1.00;;;;;;5048977;28;20461;-77
2023/08/05 07:24:03;;;;;;;7.60;7.00;;;21.50;1.00;;;;;;5052343;28;20531;-80
2023/08/05 07:26:30;;;;;;;4.57;4.17;;;21.70;1.00;;;;;;5050126;28;21096;-80
2023/08/05 07:28:59;;;;;;;5.37;4.20;;;21.80;1.00;;;;;;5048789;28;20471;-78
2023/08/05 07:31:28;;;;;;;5.90;4.63;;;21.80;1.00;;;;;;5046822;28;20542;-78
2023/08/05 07:33:55;;;;;;;5.27;4.30;;;21.80;1.00;;;;;;5046956;28;20932;-79
2023/08/05 07:36:22;;;;;;;5.60;4.73;;;21.60;1.00;;;;;;5047251;28;20948;-79
2023/08/05 07:38:51;;;;;;;5.33;3.47;;;21.60;1.00;;;;;;5047657;28;20472;-79
2023/08/05 07:41:20;;;;;;;4.97;4.43;;;21.60;1.00;;;;;;5049438;28;20446;-77
2023/08/05 07:43:47;;;;;;;4.77;4.23;;;21.50;1.00;;;;;;5046688;28;20477;-78
2023/08/05 07:46:16;;;;;;;7.43;4.07;;;21.60;1.00;;;;;;5043648;28;20526;-75
2023/08/05 07:48:46;;;;;;;4.70;3.60;;;21.60;1.00;;;;;;5040973;28;20456;-79
2023/08/05 07:51:13;;;;;;;6.30;4.73;;;21.80;1.00;;;;;;5046141;28;20456;-77
2023/08/05 07:53:41;;;;;;;4.97;4.20;;;21.80;1.00;;;;;;5042568;28;20917;-75
2023/08/05 07:56:11;;;;;;;5.93;4.07;;;21.90;1.00;;;;;;5041404;28;21058;-76
2023/08/05 07:58:40;;;;;;;4.60;4.20;;;22.00;1.00;;;;;;5048462;28;20471;-77
2023/08/05 08:01:07;;;;;;;5.20;4.10;;;22.00;1.00;;;;;;5048970;28;20432;-79
2023/08/05 08:03:35;;;;;;;6.80;4.40;;;22.10;1.00;;;;;;5047662;28;20517;-80
2023/08/05 08:06:03;;;;;;;7.07;4.63;;;22.10;1.00;;;;;;5046391;28;20476;-80
2023/08/05 08:08:30;;;;;;;4.60;3.77;;;22.20;1.00;;;;;;5048503;28;20545;-79
2023/08/05 08:10:57;;;;;;;4.53;3.90;;;22.10;1.00;;;;;;5047717;28;20905;-77
2023/08/05 08:13:24;;;;;;;5.50;4.10;;;22.20;1.00;;;;;;5049233;28;20460;-78
2023/08/05 08:15:51;;;;;;;5.57;4.30;;;22.30;1.00;;;;;;5049519;28;20565;-77
2023/08/05 08:18:19;;;;;;;14.20;4.93;;;22.40;1.00;;;;;;5046436;28;20548;-75
2023/08/05 08:20:52;;;;;;;4.50;4.00;;;22.60;1.00;;;;;;5047182;28;20464;-75
2023/08/05 08:23:19;;;;;;;4.63;3.80;;;22.70;1.00;;;;;;5045260;28;20478;-77
2023/08/05 08:25:46;;;;;;;4.30;3.60;;;23.00;1.00;;;;;;5046333;28;20457;-76
2023/08/05 08:28:13;;;;;;;5.63;4.53;;;23.10;1.00;;;;;;5046895;28;20533;-76
2023/08/05 08:30:40;;;;;;;5.20;4.30;;;23.10;1.00;;;;;;5045837;28;20505;-76
2023/08/05 08:33:07;;;;;;;4.87;4.47;;;23.10;1.00;;;;;;5047406;28;20479;-75
2023/08/05 08:35:35;;;;;;;3.40;3.10;;;23.10;1.00;;;;;;5048617;28;20514;-74
2023/08/05 08:38:04;;;;;;;4.57;3.93;;;23.30;1.00;;;;;;5050408;28;20485;-75
2023/08/05 08:40:32;;;;;;;5.50;4.00;;;23.20;1.00;;;;;;5045316;28;20561;-76
2023/08/05 08:43:02;;;;;;;4.50;4.13;;;23.20;1.00;;;;;;5046232;28;20922;-76
2023/08/05 08:45:33;;;;;;;6.50;4.63;;;23.30;1.00;;;;;;5047655;28;20518;-74
2023/08/05 08:48:01;;;;;;;5.77;4.00;;;23.40;1.00;;;;;;5045071;28;20471;-74
2023/08/05 08:50:30;;;;;;;3.90;3.10;;;23.50;1.00;;;;;;5041084;28;20478;-75
2023/08/05 08:53:00;;;;;;;5.90;3.70;;;23.50;1.00;;;;;;5038688;28;20525;-75
2023/08/05 08:55:30;;;;;;;5.50;3.90;;;23.60;1.00;;;;;;5051355;28;21009;-75
2023/08/05 08:57:58;;;;;;;3.87;3.43;;;23.60;1.00;;;;;;5053125;28;21114;-75
2023/08/05 09:00:27;;;;;;;4.20;3.30;;;23.60;1.00;;;;;;5055749;28;20804;-75
2023/08/05 09:02:55;;;;;;;4.07;3.60;;;23.60;1.00;;;;;;5048575;28;20889;-75
2023/08/05 09:05:22;;;;;;;6.50;4.37;;;23.70;1.00;;;;;;5053737;28;20452;-75
2023/08/05 09:07:50;;;;;;;5.40;3.27;;;23.80;1.00;;;;;;5053530;28;20469;-75
2023/08/05 09:10:17;;;;;;;4.57;4.10;;;23.80;1.00;;;;;;5042104;28;20448;-76
2023/08/05 09:12:46;;;;;;;6.13;3.50;;;23.80;1.00;;;;;;5051095;28;20477;-75
2023/08/05 09:15:15;;;;;;;7.60;4.20;;;23.70;1.00;;;;;;5050401;28;20472;-75
2023/08/05 09:17:43;;;;;;;4.90;4.43;;;23.70;1.00;;;;;;5054005;28;20537;-75
2023/08/05 09:20:16;;;;;;;3.60;3.20;;;23.60;1.00;;;;;;5051440;28;20559;-75
2023/08/05 09:22:53;;;;;;;5.47;3.50;;;23.50;1.00;;;;;;5049944;28;20469;-75
2023/08/05 09:25:23;;;;;;;7.00;3.90;;;23.50;1.00;;;;;;5052153;28;20450;-75
2023/08/05 09:27:53;;;;;;;4.30;3.77;;;23.70;1.00;;;;;;5049399;28;20488;-75
2023/08/05 09:30:21;;;;;;;4.30;3.50;;;24.00;1.00;;;;;;5048616;28;20457;-74
2023/08/05 09:32:49;;;;;;;4.40;3.80;;;24.30;1.00;;;;;;5052593;28;20955;-75
2023/08/05 09:35:16;;;;;;;4.23;3.60;;;24.70;1.00;;;;;;5049482;28;20530;-75
2023/08/05 09:37:46;;;;;;;3.57;2.57;;;25.60;1.00;;;;;;5049044;28;21408;-78
2023/08/05 09:40:17;;;;;;;4.03;2.73;;;26.70;1.00;;;;;;5051353;28;20907;-78
2023/08/05 09:42:47;;;;;;;6.10;3.73;;;27.50;1.00;;;;;;5050672;28;20525;-77
2023/08/05 09:45:17;;;;;;;6.37;3.50;;;28.40;1.00;;;;;;5046902;28;20473;-77
2023/08/05 09:47:47;;;;;;;3.43;2.97;;;28.80;1.00;;;;;;5051845;28;20439;-76
2023/08/05 09:50:15;;;;;;;3.53;2.50;;;28.30;1.00;;;;;;5051762;28;20472;-76
2023/08/05 09:52:43;;;;;;;8.10;4.23;;;27.50;1.00;;;;;;5049692;28;20633;-76
2023/08/05 09:55:13;;;;;;;3.93;3.30;;;26.60;1.00;;;;;;5054095;28;20893;-76
2023/08/05 09:57:42;;;;;;;4.00;2.83;;;26.50;1.00;;;;;;5047730;28;20994;-77
2023/08/05 10:00:11;;;;;;;2.97;2.67;;;27.30;1.00;;;;;;5053001;28;20471;-77
2023/08/05 10:02:41;;;;;;;2.90;2.30;;;28.20;1.00;;;;;;5050967;28;20884;-76
2023/08/05 10:05:10;;;;;;;3.83;3.03;;;29.10;1.00;;;;;;5051654;28;20609;-77
2023/08/05 10:07:39;;;;;;;3.37;3.07;;;29.50;1.00;;;;;;5052433;28;20465;-77
2023/08/05 10:10:09;;;;;;;3.87;2.73;;;29.70;1.00;;;;;;5049572;28;20464;-76
2023/08/05 10:12:41;;;;;;;4.83;2.70;;;29.60;1.00;;;;;;5050717;28;20475;-76
2023/08/05 10:15:11;;;;;;;3.00;2.73;;;29.20;1.00;;;;;;5049036;28;20800;-77
2023/08/05 10:17:40;;;;;;;3.83;2.77;;;28.40;1.00;;;;;;5048658;28;20536;-76
2023/08/05 10:20:12;;;;;;;5.30;3.47;;;27.50;1.00;;;;;;5050593;28;20479;-76
2023/08/05 10:22:39;;;;;;;4.47;3.50;;;27.20;1.00;;;;;;5047619;28;20853;-76
2023/08/05 10:25:08;;;;;;;6.97;3.30;;;27.40;1.00;;;;;;5050528;28;20463;-77
2023/08/05 10:27:40;;;;;;;2.93;2.73;;;27.80;1.00;;;;;;5049812;28;20549;-76
2023/08/05 10:30:09;;;;;;;4.60;2.60;;;27.90;1.00;;;;;;5051839;28;20529;-77
2023/08/05 10:32:49;;;;;;;3.50;3.00;;;27.70;1.00;;;;;;5049207;28;20494;-76
2023/08/05 10:35:31;;;;;;;4.00;3.50;;;27.40;1.00;;;;;;5052769;28;21073;-77
2023/08/05 10:38:16;;;;;;;5.00;3.10;;;27.60;1.00;;;;;;5045679;28;20475;-76
2023/08/05 10:40:47;;;;;;;2.53;2.33;;;28.60;1.00;;;;;;5050615;28;20922;-77
2023/08/05 10:43:30;;;;;;;2.50;2.30;;;29.30;1.00;;;;;;5050795;28;20470;-76
2023/08/05 10:45:57;;;;;;;3.10;2.47;;;29.20;1.00;;;;;;5048656;28;22817;-76
2023/08/05 10:48:30;;;;;;;3.80;2.97;;;29.70;1.00;;;;;;5043532;28;20472;-77
2023/08/05 10:50:59;;;;;;;3.40;3.00;;;30.20;1.00;;;;;;5046922;28;20462;-76
2023/08/05 10:53:26;;;;;;;2.50;2.30;;;30.60;1.00;;;;;;5046399;28;20846;-77
2023/08/05 10:55:57;;;;;;;3.13;2.83;;;30.80;1.00;;;;;;5040706;28;20551;-76
2023/08/05 10:58:25;;;;;;;3.60;3.30;;;31.10;1.00;;;;;;5043170;28;20814;-76
2023/08/05 11:00:59;;;;;;;2.73;2.10;;;30.40;1.00;;;;;;5046338;28;20557;-78
2023/08/05 11:03:42;;;;;;;5.17;2.73;;;29.60;1.00;;;;;;5048872;28;20846;-77
2023/08/05 11:06:14;;;;;;;3.53;3.07;;;28.50;1.00;;;;;;5043981;28;20474;-76
2023/08/05 11:08:42;;;;;;;4.23;2.70;;;27.90;1.00;;;;;;5050057;28;20468;-76
2023/08/05 11:11:11;;;;;;;2.70;2.50;;;27.60;1.00;;;;;;5049178;28;20464;-76
2023/08/05 11:13:40;;;;;;;5.83;3.67;;;27.30;1.00;;;;;;5048664;28;20467;-76
2023/08/05 11:16:11;;;;;;;3.10;2.83;;;26.90;1.00;;;;;;5043368;28;20492;-76
2023/08/05 11:18:39;;;;;;;2.73;2.53;;;26.50;1.00;;;;;;5048176;28;20563;-76
2023/08/05 11:21:09;;;;;;;4.47;3.30;;;26.40;1.00;;;;;;5042781;28;20979;-76
2023/08/05 11:23:39;;;;;;;4.70;2.53;;;26.20;1.00;;;;;;5045220;28;20483;-76
2023/08/05 11:26:07;;;;;;;3.67;2.93;;;26.30;1.00;;;;;;5065181;22;20479;-78
2023/08/05 11:28:35;;;;;;;4.57;2.93;;;26.40;1.00;;;;;;5043631;28;20465;-77
2023/08/05 11:31:04;;;;;;;2.60;2.40;;;26.50;1.00;;;;;;5042641;28;21260;-77
2023/08/05 11:33:31;;;;;;;2.80;2.50;;;26.50;1.00;;;;;;5047113;28;20623;-79
2023/08/05 11:36:00;;;;;;;3.57;2.83;;;26.80;1.00;;;;;;5043513;28;20489;-79
2023/08/05 11:38:29;;;;;;;3.23;2.90;;;27.00;1.00;;;;;;5044237;28;20553;-81
2023/08/05 11:40:59;;;;;;;4.77;3.50;;;27.00;1.00;;;;;;5043900;28;20464;-77
2023/08/05 11:43:29;;;;;;;4.23;3.50;;;27.10;1.00;;;;;;5045141;28;20466;-78
2023/08/05 11:45:57;;;;;;;3.83;2.90;;;27.30;1.00;;;;;;5047590;28;20448;-77
2023/08/05 11:48:25;;;;;;;4.50;3.13;;;27.50;1.00;;;;;;5043489;28;20932;-80
2023/08/05 11:50:56;;;;;;;3.50;3.20;;;27.70;1.00;;;;;;5046896;28;20492;-80
2023/08/05 11:53:23;;;;;;;3.90;2.43;;;27.80;1.00;;;;;;5048009;28;20431;-80
2023/08/05 11:55:50;;;;;;;2.90;2.50;;;27.00;1.00;;;;;;5045575;28;21254;-77
2023/08/05 11:58:21;;;;;;;2.77;2.13;;;26.90;1.00;;;;;;5040758;28;20575;-77
2023/08/05 12:00:49;;;;;;;5.43;2.67;;;27.50;1.00;;;;;;5041463;28;20455;-77
2023/08/05 12:03:16;;;;;;;3.37;2.40;;;27.80;1.00;;;;;;5041789;28;20470;-79
2023/08/05 12:05:46;;;;;;;2.83;2.43;;;28.30;1.00;;;;;;5040219;28;20467;-77
2023/08/05 12:08:36;;;;;;;3.30;2.20;;;28.30;1.00;;;;;;5039694;28;20544;-80
2023/08/05 12:11:03;;;;;;;2.40;2.20;;;28.50;1.00;;;;;;5036594;28;20461;-79
2023/08/05 12:13:35;;;;;;;3.67;2.60;;;28.50;1.00;;;;;;5041040;28;20530;-78
2023/08/05 12:16:14;;;;;;;2.70;2.20;;;28.50;1.00;;;;;;5036593;28;20514;-78
2023/08/05 12:18:43;;;;;;;2.70;2.37;;;28.50;1.00;;;;;;5044893;28;20458;-78
2023/08/05 12:21:10;;;;;;;2.50;2.30;;;28.30;1.00;;;;;;5047388;28;20585;-78
2023/08/05 12:23:40;;;;;;;2.60;2.40;;;28.20;1.00;;;;;;5043827;28;20533;-77
2023/08/05 12:26:08;;;;;;;4.50;2.70;;;27.80;1.00;;;;;;5045007;28;20466;-77
2023/08/05 12:28:37;;;;;;;3.53;2.40;;;27.60;1.00;;;;;;5047598;28;20538;-77
2023/08/05 12:31:04;;;;;;;3.00;2.37;;;27.40;1.00;;;;;;5041108;28;20464;-76
2023/08/05 12:33:31;;;;;;;3.23;2.53;;;27.30;1.00;;;;;;5049565;28;20484;-78
2023/08/05 12:35:58;;;;;;;2.60;2.40;;;27.20;1.00;;;;;;5048780;28;20437;-79
2023/08/05 12:38:27;;;;;;;3.03;2.60;;;27.10;1.00;;;;;;5049321;28;20965;-78
2023/08/05 12:40:54;;;;;;;3.50;2.77;;;26.90;1.00;;;;;;5048205;28;20466;-78
2023/08/05 12:43:22;;;;;;;3.73;3.43;;;26.80;1.00;;;;;;5045844;28;20485;-78
2023/08/05 12:45:50;;;;;;;4.30;3.87;;;26.70;1.00;;;;;;5053847;28;20463;-78
2023/08/05 12:48:19;;;;;;;2.50;2.30;;;26.50;1.00;;;;;;5050516;28;20475;-78
2023/08/05 12:50:50;;;;;;;4.63;2.77;;;26.40;1.00;;;;;;5048207;28;20453;-78
2023/08/05 12:53:16;;;;;;;3.20;2.90;;;26.40;1.00;;;;;;5045586;28;20456;-78
2023/08/05 12:55:44;;;;;;;5.00;4.57;;;26.40;1.00;;;;;;5050468;28;20512;-78
2023/08/05 12:58:11;;;;;;;3.40;3.10;;;26.50;1.00;;;;;;5051887;28;20485;-78
2023/08/05 13:00:38;;;;;;;3.63;3.33;;;26.50;1.00;;;;;;5045835;28;20473;-77
2023/08/05 13:03:06;;;;;;;3.63;3.00;;;26.60;1.00;;;;;;5048172;28;20924;-77